createdAt,value
2022-11-24T00:01:21.632Z,21.70
2022-11-24T00:03:55.171Z,22.00
2022-11-24T00:06:22.665Z,22.00
2022-11-24T00:08:49.749Z,21.90
2022-11-24T00:11:20.489Z,22.10
2022-11-24T00:13:47.843Z,22.10
2022-11-24T00:16:25.011Z,22.10
2022-11-24T00:18:55.842Z,22.20
2022-11-24T00:21:24.122Z,22.70
2022-11-24T00:23:52.617Z,23.70
2022-11-24T00:26:27.824Z,23.20
2022-11-24T00:28:59.411Z,22.90
2022-11-24T00:31:27.492Z,22.70
2022-11-24T00:33:56.942Z,22.90
2022-11-24T00:36:25.587Z,22.90
2022-11-24T00:38:57.611Z,23.00
2022-11-24T00:41:25.947Z,23.00
2022-11-24T00:43:53.602Z,22.70
2022-11-24T00:46:21.733Z,23.20
2022-11-24T00:48:48.922Z,23.10
2022-11-24T00:51:17.651Z,23.50
2022-11-24T00:53:45.438Z,23.20
2022-11-24T00:56:13.305Z,23.00
2022-11-24T00:58:40.651Z,22.90
2022-11-24T01:01:29.125Z,23.20
2022-11-24T01:03:56.718Z,23.00
2022-11-24T01:06:25.807Z,22.90
2022-11-24T01:08:53.371Z,22.90
2022-11-24T01:11:23.095Z,23.00
2022-11-24T01:13:53.680Z,22.80
2022-11-24T01:16:29.974Z,22.90
2022-11-24T01:18:57.614Z,22.80
2022-11-24T01:21:24.940Z,22.90
2022-11-24T01:23:52.112Z,23.20
2022-11-24T01:26:21.303Z,23.40
2022-11-24T01:28:52.862Z,23.20
2022-11-24T01:31:20.953Z,23.40
2022-11-24T01:33:47.956Z,23.60
2022-11-24T01:36:14.968Z,23.80
2022-11-24T01:38:42.030Z,24.00
2022-11-24T01:41:13.249Z,23.90
2022-11-24T01:43:41.855Z,24.40
2022-11-24T01:46:19.983Z,24.30
2022-11-24T01:49:06.304Z,23.80
2022-11-24T01:51:36.468Z,24.00
2022-11-24T01:54:08.435Z,24.10
2022-11-24T01:56:40.239Z,24.00
2022-11-24T01:59:10.888Z,23.60
2022-11-24T02:01:37.974Z,23.80
2022-11-24T02:04:08.566Z,23.80
2022-11-24T02:06:37.320Z,23.60
2022-11-24T02:09:13.505Z,23.60
2022-11-24T02:11:42.073Z,23.60
2022-11-24T02:14:13.259Z,23.70
2022-11-24T02:16:43.037Z,23.60
2022-11-24T02:19:25.550Z,23.20
2022-11-24T02:21:52.597Z,23.00
2022-11-24T02:24:47.677Z,23.50
2022-11-24T02:27:14.602Z,23.80
2022-11-24T02:29:41.819Z,23.80
2022-11-24T02:32:10.130Z,23.70
2022-11-24T02:34:37.287Z,23.70
2022-11-24T02:37:04.463Z,24.00
2022-11-24T02:39:31.476Z,23.90
2022-11-24T02:42:13.033Z,24.00
2022-11-24T02:44:48.596Z,24.10
2022-11-24T02:47:15.609Z,24.10
2022-11-24T02:49:42.639Z,24.20
2022-11-24T02:52:09.695Z,23.80
2022-11-24T02:54:37.036Z,23.60
2022-11-24T02:57:04.381Z,23.10
2022-11-24T02:59:31.629Z,23.60
2022-11-24T03:01:58.721Z,23.70
2022-11-24T03:04:25.707Z,23.60
2022-11-24T03:06:52.767Z,23.00
2022-11-24T03:09:19.738Z,23.30
2022-11-24T03:11:47.031Z,23.40
2022-11-24T03:14:14.019Z,23.20
2022-11-24T03:16:40.963Z,23.50
2022-11-24T03:19:08.156Z,23.60
2022-11-24T03:21:36.756Z,23.40
2022-11-24T03:24:04.140Z,23.50
2022-11-24T03:26:31.088Z,23.40
2022-11-24T03:28:58.084Z,23.40
2022-11-24T03:31:25.727Z,23.50
2022-11-24T03:33:52.762Z,23.50
2022-11-24T03:36:19.708Z,23.50
2022-11-24T03:38:46.720Z,23.50
2022-11-24T03:41:14.155Z,23.60
2022-11-24T03:43:44.280Z,23.80
2022-11-24T03:46:12.842Z,23.80
2022-11-24T03:48:40.029Z,23.60
2022-11-24T03:51:07.199Z,23.70
2022-11-24T03:53:34.546Z,23.90
2022-11-24T03:56:02.313Z,23.80
2022-11-24T03:58:30.164Z,23.60
2022-11-24T04:00:58.069Z,23.60
2022-11-24T04:03:25.535Z,23.30
2022-11-24T04:05:52.861Z,23.10
2022-11-24T04:08:20.152Z,22.90
2022-11-24T04:10:51.398Z,22.90
2022-11-24T04:13:20.200Z,23.00
2022-11-24T04:15:47.213Z,23.30
2022-11-24T04:18:14.584Z,23.50
2022-11-24T04:20:42.446Z,23.60
2022-11-24T04:23:10.391Z,23.80
2022-11-24T04:25:40.476Z,23.30
2022-11-24T04:28:07.603Z,23.50
2022-11-24T04:30:36.359Z,23.50
2022-11-24T04:33:03.331Z,23.70
2022-11-24T04:35:30.420Z,23.50
2022-11-24T04:37:57.469Z,23.90
2022-11-24T04:40:24.535Z,23.50
2022-11-24T04:42:55.711Z,23.30
2022-11-24T04:45:24.759Z,23.60
2022-11-24T04:47:52.246Z,23.60
2022-11-24T04:50:19.175Z,23.80
2022-11-24T04:52:46.252Z,23.20
2022-11-24T04:55:13.446Z,23.10
2022-11-24T04:57:40.427Z,23.40
2022-11-24T05:00:09.364Z,23.30
2022-11-24T05:02:36.698Z,23.50
2022-11-24T05:05:04.562Z,23.50
2022-11-24T05:07:31.684Z,23.10
2022-11-24T05:10:17.324Z,23.00
2022-11-24T05:12:51.067Z,23.10
2022-11-24T05:15:18.358Z,23.40
2022-11-24T05:17:45.275Z,23.70
2022-11-24T05:20:12.244Z,23.70
2022-11-24T05:22:39.324Z,23.60
2022-11-24T05:25:06.634Z,23.70
2022-11-24T05:27:33.555Z,23.30
2022-11-24T05:30:00.600Z,23.60
2022-11-24T05:32:27.687Z,23.70
2022-11-24T05:34:54.785Z,23.50
2022-11-24T05:37:21.955Z,23.30
2022-11-24T05:39:48.850Z,23.10
2022-11-24T05:42:34.323Z,23.00
2022-11-24T05:45:01.266Z,23.10
2022-11-24T05:47:31.103Z,23.20
2022-11-24T05:49:58.139Z,23.10
2022-11-24T05:52:25.040Z,23.10
2022-11-24T05:54:52.098Z,23.20
2022-11-24T05:57:19.052Z,23.30
2022-11-24T05:59:46.059Z,23.00
2022-11-24T06:02:14.157Z,23.10
2022-11-24T06:04:41.227Z,22.80
2022-11-24T06:07:09.522Z,22.90
2022-11-24T06:09:38.571Z,22.70
2022-11-24T06:12:07.759Z,22.80
2022-11-24T06:14:35.303Z,22.70
2022-11-24T06:17:02.833Z,22.70
2022-11-24T06:19:29.796Z,22.40
2022-11-24T06:21:58.083Z,22.30
2022-11-24T06:24:25.303Z,22.30
2022-11-24T06:26:53.570Z,22.00
2022-11-24T06:29:20.463Z,22.00
2022-11-24T06:31:47.583Z,22.30
2022-11-24T06:34:14.836Z,22.40
2022-11-24T06:36:41.709Z,22.40
2022-11-24T06:39:08.614Z,22.50
2022-11-24T06:41:35.632Z,22.30
2022-11-24T06:44:03.987Z,22.20
2022-11-24T06:46:31.935Z,22.10
2022-11-24T06:48:59.999Z,22.10
2022-11-24T06:51:27.775Z,22.50
2022-11-24T06:53:55.027Z,22.50
2022-11-24T06:56:22.175Z,22.30
2022-11-24T06:58:51.283Z,22.30
2022-11-24T07:01:20.349Z,22.60
2022-11-24T07:03:48.392Z,22.70
2022-11-24T07:06:16.325Z,22.70
2022-11-24T07:08:43.633Z,22.80
2022-11-24T07:11:15.591Z,22.90
2022-11-24T07:13:43.734Z,23.00
2022-11-24T07:16:16.585Z,23.20
2022-11-24T07:18:44.680Z,22.80
2022-11-24T07:21:12.149Z,22.90
2022-11-24T07:23:39.662Z,23.20
2022-11-24T07:26:08.552Z,23.30
2022-11-24T07:28:36.933Z,22.90
2022-11-24T07:31:07.871Z,23.10
2022-11-24T07:33:35.041Z,22.90
2022-11-24T07:36:02.700Z,22.60
2022-11-24T07:38:31.190Z,22.50
2022-11-24T07:41:06.849Z,22.60
2022-11-24T07:43:35.274Z,22.50
2022-11-24T07:46:03.437Z,22.30
2022-11-24T07:48:30.353Z,22.60
2022-11-24T07:51:00.587Z,22.50
2022-11-24T07:53:28.736Z,22.50
2022-11-24T07:56:00.881Z,22.70
2022-11-24T07:58:33.480Z,22.80
2022-11-24T08:01:09.291Z,22.60
2022-11-24T08:03:36.476Z,23.10
2022-11-24T08:08:50.835Z,23.20
2022-11-24T08:11:18.528Z,23.40
2022-11-24T08:13:46.583Z,22.90
2022-11-24T08:16:16.625Z,23.00
2022-11-24T08:18:44.164Z,22.80
2022-11-24T08:21:13.996Z,23.10
2022-11-24T08:23:41.955Z,22.90
2022-11-24T08:26:16.055Z,22.90
2022-11-24T08:28:43.152Z,23.60
2022-11-24T08:31:18.938Z,23.60
2022-11-24T08:33:46.922Z,23.90
2022-11-24T08:36:17.078Z,23.60
2022-11-24T08:38:44.894Z,23.30
2022-11-24T08:41:14.737Z,23.00
2022-11-24T08:43:42.138Z,23.50
2022-11-24T08:46:13.232Z,23.40
2022-11-24T08:48:40.625Z,23.30
2022-11-24T08:51:10.323Z,23.30
2022-11-24T08:53:37.398Z,23.60
2022-11-24T08:56:05.684Z,23.40
2022-11-24T08:58:34.411Z,23.60
2022-11-24T09:01:06.554Z,23.80
2022-11-24T09:03:34.658Z,24.30
2022-11-24T09:06:02.527Z,23.80
2022-11-24T09:08:30.976Z,23.80
2022-11-24T09:11:13.381Z,23.70
2022-11-24T09:13:41.217Z,23.50
2022-11-24T09:16:10.809Z,23.40
2022-11-24T09:18:38.603Z,23.20
2022-11-24T09:21:09.189Z,23.70
2022-11-24T09:23:37.892Z,23.10
2022-11-24T09:26:07.546Z,23.20
2022-11-24T09:28:34.944Z,22.90
2022-11-24T09:31:04.553Z,22.70
2022-11-24T09:33:32.622Z,22.70
2022-11-24T09:36:00.055Z,22.60
2022-11-24T09:38:27.623Z,22.60
2022-11-24T09:40:58.255Z,23.00
2022-11-24T09:43:50.602Z,23.00
2022-11-24T09:46:36.500Z,23.20
2022-11-24T09:49:05.740Z,22.90
2022-11-24T09:51:33.860Z,23.00
2022-11-24T09:54:11.805Z,22.70
2022-11-24T09:56:42.385Z,22.60
2022-11-24T09:59:22.839Z,22.90
2022-11-24T10:01:51.895Z,23.00
2022-11-24T10:04:35.445Z,23.00
2022-11-24T10:07:39.498Z,22.90
2022-11-24T10:10:25.113Z,22.50
2022-11-24T10:13:10.195Z,23.50
2022-11-24T10:16:04.850Z,23.80
2022-11-24T10:18:47.010Z,24.60
2022-11-24T10:21:44.349Z,24.60
2022-11-24T10:24:33.012Z,24.50
2022-11-24T10:27:13.980Z,25.00
2022-11-24T10:29:43.187Z,25.30
2022-11-24T10:32:20.247Z,24.80
2022-11-24T10:34:51.812Z,24.70
2022-11-24T10:37:33.717Z,24.10
2022-11-24T10:40:00.838Z,23.70
2022-11-24T10:42:37.067Z,23.60
2022-11-24T10:45:17.798Z,23.20
2022-11-24T10:47:47.002Z,22.90
2022-11-24T10:50:32.515Z,22.60
2022-11-24T10:53:30.025Z,22.80
2022-11-24T10:55:58.663Z,23.10
2022-11-24T10:58:38.394Z,23.40
2022-11-24T11:01:14.894Z,23.50
2022-11-24T11:03:56.031Z,23.40
2022-11-24T11:06:28.467Z,22.80
2022-11-24T11:09:07.544Z,22.60
2022-11-24T11:11:36.374Z,22.60
2022-11-24T11:14:10.031Z,22.50
2022-11-24T11:16:54.390Z,22.40
2022-11-24T11:19:50.940Z,23.40
2022-11-24T11:22:26.325Z,23.50
2022-11-24T11:25:11.613Z,23.50
2022-11-24T11:27:39.790Z,24.50
2022-11-24T11:36:13.672Z,24.00
2022-11-24T11:38:41.715Z,23.60
2022-11-24T11:41:19.610Z,23.10
2022-11-24T11:43:50.668Z,22.90
2022-11-24T11:46:17.744Z,22.70
2022-11-24T11:48:46.977Z,22.80
2022-11-24T11:51:39.393Z,22.70
2022-11-24T11:54:12.216Z,22.90
2022-11-24T11:56:45.364Z,22.80
2022-11-24T11:59:38.495Z,22.50
2022-11-24T12:02:08.159Z,22.80
2022-11-24T12:05:01.297Z,23.00
2022-11-24T12:08:09.716Z,23.60
2022-11-24T12:10:46.238Z,23.70
2022-11-24T12:13:31.546Z,23.30
2022-11-24T12:16:14.491Z,23.20
2022-11-24T12:19:04.942Z,22.90
2022-11-24T12:21:56.247Z,22.80
2022-11-24T12:24:40.611Z,22.80
2022-11-24T12:27:41.055Z,22.80
2022-11-24T12:30:13.147Z,22.90
2022-11-24T12:32:43.412Z,22.80
2022-11-24T12:35:33.880Z,22.80
2022-11-24T12:38:57.385Z,23.20
2022-11-24T12:41:47.228Z,23.30
2022-11-24T12:44:40.327Z,24.30
2022-11-24T12:47:17.937Z,24.80
2022-11-24T12:49:58.814Z,24.80
2022-11-24T12:52:44.249Z,25.90
2022-11-24T12:55:23.296Z,26.80
2022-11-24T12:58:09.321Z,26.20
2022-11-24T13:00:45.252Z,24.80
2022-11-24T13:03:33.072Z,24.00
2022-11-24T13:06:35.536Z,23.70
2022-11-24T13:09:10.568Z,23.50
2022-11-24T13:11:40.952Z,23.00
2022-11-24T13:14:15.697Z,23.30
2022-11-24T13:19:45.058Z,23.50
2022-11-24T13:22:26.750Z,23.50
2022-11-24T13:25:14.780Z,23.70
2022-11-24T13:27:44.525Z,23.60
2022-11-24T13:30:36.023Z,23.30
2022-11-24T13:33:16.019Z,24.20
2022-11-24T13:36:08.243Z,24.00
2022-11-24T13:38:47.006Z,23.50
2022-11-24T13:41:32.580Z,23.40
2022-11-24T13:44:24.028Z,23.00
2022-11-24T13:47:06.716Z,22.90
2022-11-24T13:49:46.564Z,23.00
2022-11-24T13:52:38.312Z,22.90
2022-11-24T13:55:22.306Z,22.70
2022-11-24T13:58:05.617Z,23.10
2022-11-24T14:00:58.107Z,23.40
2022-11-24T14:03:30.118Z,23.50
2022-11-24T14:05:58.819Z,24.00
2022-11-24T14:08:28.836Z,24.50
2022-11-24T14:10:57.887Z,24.90
2022-11-24T14:13:32.470Z,25.70
2022-11-24T14:16:10.412Z,25.00
2022-11-24T14:18:40.544Z,24.50
2022-11-24T14:21:30.762Z,24.20
2022-11-24T14:24:04.315Z,23.70
2022-11-24T14:26:41.607Z,23.20
2022-11-24T14:29:21.396Z,23.40
2022-11-24T14:31:58.072Z,24.10
2022-11-24T14:34:28.248Z,24.90
2022-11-24T14:36:56.679Z,25.20
2022-11-24T14:39:26.259Z,26.30
2022-11-24T14:42:15.597Z,25.60
2022-11-24T14:44:50.567Z,24.90
2022-11-24T14:47:32.408Z,24.50
2022-11-24T14:50:16.545Z,24.10
2022-11-24T14:52:54.819Z,24.40
2022-11-24T14:55:27.785Z,24.50
2022-11-24T14:57:56.027Z,24.40
2022-11-24T15:00:27.855Z,25.00
2022-11-24T15:03:00.884Z,25.60
2022-11-24T15:05:54.854Z,25.40
2022-11-24T15:08:23.104Z,25.00
2022-11-24T15:11:06.484Z,25.10
2022-11-24T15:13:37.636Z,26.40
2022-11-24T15:16:19.389Z,26.30
2022-11-24T15:18:48.559Z,26.70
2022-11-24T15:21:19.516Z,25.80
2022-11-24T15:24:17.098Z,25.20
2022-11-24T15:26:45.068Z,24.50
2022-11-24T15:29:12.957Z,23.80
2022-11-24T15:31:41.088Z,23.70
2022-11-24T15:34:12.555Z,23.60
2022-11-24T15:36:39.408Z,23.40
2022-11-24T15:39:06.323Z,23.40
2022-11-24T15:41:35.049Z,23.40
2022-11-24T15:44:01.973Z,23.90
2022-11-24T15:46:31.097Z,24.20
2022-11-24T15:48:58.257Z,24.60
2022-11-24T15:51:26.539Z,24.10
2022-11-24T15:54:00.270Z,23.60
2022-11-24T15:56:34.003Z,23.30
2022-11-24T15:59:02.074Z,23.60
2022-11-24T16:01:33.885Z,23.40
2022-11-24T16:04:02.328Z,23.50
2022-11-24T16:06:29.337Z,23.80
2022-11-24T16:08:57.763Z,24.60
2022-11-24T16:11:24.820Z,24.90
2022-11-24T16:13:53.708Z,25.30
2022-11-24T16:16:22.693Z,25.40
2022-11-24T16:18:49.709Z,25.40
2022-11-24T16:21:16.597Z,25.60
2022-11-24T16:23:43.582Z,26.00
2022-11-24T16:26:10.681Z,25.60
2022-11-24T16:28:37.541Z,25.30
2022-11-24T16:31:04.626Z,25.40
2022-11-24T16:33:32.076Z,25.50
2022-11-24T16:35:59.229Z,25.20
2022-11-24T16:38:26.250Z,24.80
2022-11-24T16:40:59.475Z,24.30
2022-11-24T16:43:29.695Z,24.00
2022-11-24T16:46:21.152Z,24.70
2022-11-24T16:48:50.683Z,25.10
2022-11-24T16:51:18.911Z,25.80
2022-11-24T16:53:46.103Z,25.60
2022-11-24T16:56:15.204Z,25.30
2022-11-24T16:58:42.772Z,25.20
2022-11-24T17:01:12.739Z,25.20
2022-11-24T17:03:40.670Z,25.20
2022-11-24T17:06:09.609Z,25.30
2022-11-24T17:08:37.912Z,24.80
2022-11-24T17:11:16.562Z,24.90
2022-11-24T17:13:45.624Z,25.10
2022-11-24T17:16:14.550Z,25.60
2022-11-24T17:18:41.832Z,25.40
2022-11-24T17:21:21.699Z,25.40
2022-11-24T17:23:53.201Z,25.30
2022-11-24T17:26:20.207Z,24.70
2022-11-24T17:28:47.165Z,24.20
2022-11-24T17:31:24.556Z,23.40
2022-11-24T17:33:53.729Z,23.50
2022-11-24T17:36:20.804Z,23.50
2022-11-24T17:38:49.690Z,24.20
2022-11-24T17:41:18.055Z,25.10
2022-11-24T17:43:51.602Z,25.60
2022-11-24T17:46:19.050Z,25.30
2022-11-24T17:48:47.075Z,25.20
2022-11-24T17:51:16.986Z,25.00
2022-11-24T17:53:46.719Z,24.20
2022-11-24T17:56:16.112Z,23.60
2022-11-24T17:58:43.631Z,23.10
2022-11-24T18:01:11.807Z,22.90
2022-11-24T18:03:40.235Z,22.70
2022-11-24T18:06:15.635Z,22.70
2022-11-24T18:08:45.238Z,22.60
2022-11-24T18:11:30.546Z,22.80
2022-11-24T18:14:02.176Z,22.80
2022-11-24T18:16:31.510Z,22.90
2022-11-24T18:19:09.888Z,22.70
2022-11-24T18:21:41.891Z,22.80
2022-11-24T18:24:10.594Z,22.90
2022-11-24T18:26:39.112Z,22.70
2022-11-24T18:29:06.172Z,22.60
2022-11-24T18:31:35.501Z,22.90
2022-11-24T18:34:04.216Z,23.10
2022-11-24T18:36:31.793Z,23.60
2022-11-24T18:39:03.788Z,23.50
2022-11-24T18:41:30.908Z,23.10
2022-11-24T18:43:57.899Z,23.40
2022-11-24T18:46:25.284Z,24.20
2022-11-24T18:48:53.300Z,24.00
2022-11-24T18:51:20.380Z,24.00
2022-11-24T18:53:53.545Z,24.10
2022-11-24T18:56:22.057Z,24.00
2022-11-24T18:58:53.103Z,23.50
2022-11-24T19:01:21.688Z,23.10
2022-11-24T19:03:53.991Z,22.80
2022-11-24T19:06:22.031Z,22.70
2022-11-24T19:08:52.437Z,22.50
2022-11-24T19:11:21.057Z,22.40
2022-11-24T19:13:49.167Z,22.40
2022-11-24T19:16:18.007Z,22.60
2022-11-24T19:18:48.947Z,22.70
2022-11-24T19:21:20.703Z,22.80
2022-11-24T19:23:47.674Z,22.50
2022-11-24T19:26:14.682Z,22.50
2022-11-24T19:28:41.658Z,22.50
2022-11-24T19:31:11.061Z,22.30
2022-11-24T19:33:38.337Z,22.20
2022-11-24T19:36:17.550Z,22.30
2022-11-24T19:38:50.567Z,22.20
2022-11-24T19:41:19.793Z,22.10
2022-11-24T19:43:47.792Z,22.00
2022-11-24T19:46:17.916Z,22.10
2022-11-24T19:48:50.260Z,22.30
2022-11-24T19:51:23.138Z,22.30
2022-11-24T19:53:50.120Z,22.40
2022-11-24T19:56:19.624Z,22.20
2022-11-24T19:58:47.071Z,22.10
2022-11-24T20:01:17.065Z,21.90
2022-11-24T20:03:45.780Z,21.80
2022-11-24T20:06:14.503Z,21.80
2022-11-24T20:08:42.938Z,21.70
2022-11-24T20:11:11.497Z,21.80
2022-11-24T20:13:40.300Z,22.10
2022-11-24T20:16:21.179Z,22.60
2022-11-24T20:18:48.606Z,22.80
2022-11-24T20:21:21.070Z,22.90
2022-11-24T20:23:57.053Z,23.00
2022-11-24T20:26:25.435Z,23.30
2022-11-24T20:28:54.719Z,23.10
2022-11-24T20:31:24.646Z,23.10
2022-11-24T20:33:51.828Z,23.20
2022-11-24T20:36:22.112Z,23.00
2022-11-24T20:38:51.039Z,23.00
2022-11-24T20:41:21.122Z,22.80
2022-11-24T20:43:49.143Z,22.60
2022-11-24T20:46:24.510Z,22.80
2022-11-24T20:48:52.223Z,22.70
2022-11-24T20:51:22.225Z,22.40
2022-11-24T20:53:50.509Z,22.30
2022-11-24T20:56:20.156Z,22.50
2022-11-24T20:58:47.636Z,22.80
2022-11-24T21:01:18.682Z,22.60
2022-11-24T21:03:46.710Z,22.40
2022-11-24T21:06:14.826Z,22.40
2022-11-24T21:08:42.727Z,22.20
2022-11-24T21:11:13.466Z,22.00
2022-11-24T21:13:43.922Z,21.80
2022-11-24T21:16:18.842Z,21.70
2022-11-24T21:18:47.882Z,21.70
2022-11-24T21:21:14.797Z,21.90
2022-11-24T21:23:42.496Z,21.90
2022-11-24T21:26:16.329Z,21.90
2022-11-24T21:28:45.428Z,22.10
2022-11-24T21:31:19.214Z,22.10
2022-11-24T21:33:48.491Z,22.10
2022-11-24T21:36:18.362Z,22.00
2022-11-24T21:38:50.423Z,22.00
2022-11-24T21:41:17.523Z,22.00
2022-11-24T21:43:44.371Z,22.00
2022-11-24T21:46:12.290Z,22.30
2022-11-24T21:48:40.541Z,22.20
2022-11-24T21:51:16.790Z,22.10
2022-11-24T21:53:44.740Z,22.40
2022-11-24T21:56:19.337Z,22.50
2022-11-24T21:58:48.391Z,22.60
2022-11-24T22:01:17.115Z,22.50
2022-11-24T22:03:44.396Z,22.30
2022-11-24T22:06:11.851Z,22.20
2022-11-24T22:08:38.874Z,22.00
2022-11-24T22:11:20.208Z,22.00
2022-11-24T22:13:47.881Z,22.10
2022-11-24T22:16:19.932Z,22.30
2022-11-24T22:18:47.300Z,22.10
2022-11-24T22:21:16.717Z,22.00
2022-11-24T22:23:45.035Z,21.80
2022-11-24T22:26:13.509Z,21.70
2022-11-24T22:28:41.221Z,21.70
2022-11-24T22:31:14.232Z,21.70
2022-11-24T22:33:41.251Z,21.60
2022-11-24T22:36:08.429Z,21.70
2022-11-24T22:38:35.392Z,21.80
2022-11-24T22:41:10.665Z,21.70
2022-11-24T22:43:38.832Z,21.60
2022-11-24T22:46:11.855Z,21.50
2022-11-24T22:48:39.939Z,21.50
2022-11-24T22:51:12.175Z,21.60
2022-11-24T22:53:39.598Z,21.60
2022-11-24T22:56:09.735Z,21.50
2022-11-24T22:58:37.507Z,21.50
2022-11-24T23:01:08.582Z,21.60
2022-11-24T23:03:35.845Z,21.60
2022-11-24T23:06:05.984Z,21.60
2022-11-24T23:08:34.848Z,21.50
2022-11-24T23:11:07.450Z,21.60
2022-11-24T23:13:35.186Z,21.90
2022-11-24T23:16:11.006Z,21.90
2022-11-24T23:18:38.694Z,21.90
2022-11-24T23:21:15.966Z,21.80
2022-11-24T23:23:44.124Z,21.70
2022-11-24T23:26:18.492Z,21.70
2022-11-24T23:28:45.731Z,21.60
2022-11-24T23:31:18.113Z,21.90
2022-11-24T23:33:45.895Z,22.40
2022-11-24T23:36:17.780Z,21.70
2022-11-24T23:38:45.205Z,21.60
2022-11-24T23:41:15.323Z,21.50
2022-11-24T23:43:42.980Z,21.40
2022-11-24T23:46:15.616Z,21.40
2022-11-24T23:48:43.082Z,21.60
2022-11-24T23:51:18.264Z,21.70
2022-11-24T23:53:45.770Z,21.70
2022-11-24T23:56:15.105Z,21.60
2022-11-24T23:58:42.038Z,21.80
